sensor_id;sensor_type;location;lat;lon;timestamp;P1;durP1;ratioP1;P2;durP2;ratioP2
3189;SDS011;1606;51.946;10.558;2023-04-03T00:01:18;9.40;;;2.93;;
3189;SDS011;1606;51.946;10.558;2023-04-03T00:03:46;7.20;;;1.60;;
3189;SDS011;1606;51.946;10.558;2023-04-03T00:06:14;7.57;;;1.87;;
3189;SDS011;1606;51.946;10.558;2023-04-03T00:08:43;8.63;;;2.20;;
3189;SDS011;1606;51.946;10.558;2023-04-03T00:11:11;7.67;;;1.70;;
3189;SDS011;1606;51.946;10.558;2023-04-03T00:13:39;7.03;;;2.10;;
3189;SDS011;1606;51.946;10.558;2023-04-03T00:16:07;10.23;;;2.57;;
3189;SDS011;1606;51.946;10.558;2023-04-03T00:18:38;10.47;;;2.33;;
3189;SDS011;1606;51.946;10.558;2023-04-03T00:21:07;7.80;;;2.57;;
3189;SDS011;1606;51.946;10.558;2023-04-03T00:23:36;8.13;;;1.90;;
3189;SDS011;1606;51.946;10.558;2023-04-03T00:26:05;9.63;;;2.33;;
3189;SDS011;1606;51.946;10.558;2023-04-03T00:28:33;11.50;;;2.57;;
3189;SDS011;1606;51.946;10.558;2023-04-03T00:31:01;8.40;;;2.27;;
3189;SDS011;1606;51.946;10.558;2023-04-03T00:33:29;7.33;;;1.90;;
3189;SDS011;1606;51.946;10.558;2023-04-03T00:35:56;10.23;;;2.13;;
3189;SDS011;1606;51.946;10.558;2023-04-03T00:38:24;15.13;;;2.47;;
3189;SDS011;1606;51.946;10.558;2023-04-03T00:40:52;7.70;;;2.67;;
3189;SDS011;1606;51.946;10.558;2023-04-03T00:43:22;8.70;;;2.00;;
3189;SDS011;1606;51.946;10.558;2023-04-03T00:45:51;6.60;;;1.77;;
3189;SDS011;1606;51.946;10.558;2023-04-03T00:48:20;11.53;;;2.07;;
3189;SDS011;1606;51.946;10.558;2023-04-03T00:50:51;7.63;;;2.03;;
3189;SDS011;1606;51.946;10.558;2023-04-03T00:53:21;6.93;;;1.93;;
3189;SDS011;1606;51.946;10.558;2023-04-03T00:55:52;7.97;;;2.00;;
3189;SDS011;1606;51.946;10.558;2023-04-03T00:58:25;9.20;;;2.53;;
3189;SDS011;1606;51.946;10.558;2023-04-03T01:00:58;8.80;;;2.10;;
3189;SDS011;1606;51.946;10.558;2023-04-03T01:03:33;9.03;;;2.80;;
3189;SDS011;1606;51.946;10.558;2023-04-03T01:06:02;8.93;;;2.30;;
3189;SDS011;1606;51.946;10.558;2023-04-03T01:08:31;7.87;;;2.43;;
3189;SDS011;1606;51.946;10.558;2023-04-03T01:10:59;8.37;;;2.03;;
3189;SDS011;1606;51.946;10.558;2023-04-03T01:13:29;7.87;;;2.17;;
3189;SDS011;1606;51.946;10.558;2023-04-03T01:16:00;9.40;;;2.10;;
3189;SDS011;1606;51.946;10.558;2023-04-03T01:18:29;6.67;;;1.90;;
3189;SDS011;1606;51.946;10.558;2023-04-03T01:24:01;9.43;;;1.90;;
3189;SDS011;1606;51.946;10.558;2023-04-03T01:26:43;10.10;;;2.63;;
3189;SDS011;1606;51.946;10.558;2023-04-03T01:29:13;7.40;;;2.70;;
3189;SDS011;1606;51.946;10.558;2023-04-03T01:31:47;9.10;;;2.03;;
3189;SDS011;1606;51.946;10.558;2023-04-03T01:34:19;9.43;;;3.00;;
3189;SDS011;1606;51.946;10.558;2023-04-03T01:36:47;11.60;;;2.40;;
3189;SDS011;1606;51.946;10.558;2023-04-03T01:39:16;8.27;;;1.90;;
3189;SDS011;1606;51.946;10.558;2023-04-03T01:41:44;7.83;;;2.17;;
3189;SDS011;1606;51.946;10.558;2023-04-03T01:44:12;6.73;;;1.97;;
3189;SDS011;1606;51.946;10.558;2023-04-03T01:46:41;8.37;;;2.07;;
3189;SDS011;1606;51.946;10.558;2023-04-03T01:49:10;7.10;;;1.93;;
3189;SDS011;1606;51.946;10.558;2023-04-03T01:51:38;9.87;;;2.40;;
3189;SDS011;1606;51.946;10.558;2023-04-03T01:54:06;8.30;;;2.67;;
3189;SDS011;1606;51.946;10.558;2023-04-03T01:56:34;6.90;;;2.37;;
3189;SDS011;1606;51.946;10.558;2023-04-03T01:59:01;7.33;;;1.97;;
3189;SDS011;1606;51.946;10.558;2023-04-03T02:01:29;8.07;;;2.30;;
3189;SDS011;1606;51.946;10.558;2023-04-03T02:03:57;7.13;;;2.00;;
3189;SDS011;1606;51.946;10.558;2023-04-03T02:06:26;8.60;;;2.10;;
3189;SDS011;1606;51.946;10.558;2023-04-03T02:08:54;13.10;;;3.13;;
3189;SDS011;1606;51.946;10.558;2023-04-03T02:11:21;7.23;;;2.17;;
3189;SDS011;1606;51.946;10.558;2023-04-03T02:13:49;10.87;;;2.20;;
3189;SDS011;1606;51.946;10.558;2023-04-03T02:16:17;22.70;;;2.80;;
3189;SDS011;1606;51.946;10.558;2023-04-03T02:18:45;8.93;;;1.97;;
3189;SDS011;1606;51.946;10.558;2023-04-03T02:21:13;9.97;;;3.03;;
3189;SDS011;1606;51.946;10.558;2023-04-03T02:23:42;7.07;;;2.00;;
3189;SDS011;1606;51.946;10.558;2023-04-03T02:26:10;7.07;;;2.20;;
3189;SDS011;1606;51.946;10.558;2023-04-03T02:28:39;11.13;;;2.20;;
3189;SDS011;1606;51.946;10.558;2023-04-03T02:31:08;7.53;;;2.33;;
3189;SDS011;1606;51.946;10.558;2023-04-03T02:33:37;13.20;;;2.47;;
3189;SDS011;1606;51.946;10.558;2023-04-03T02:36:06;7.77;;;2.07;;
3189;SDS011;1606;51.946;10.558;2023-04-03T02:38:34;6.18;;;2.00;;
3189;SDS011;1606;51.946;10.558;2023-04-03T02:41:04;8.60;;;2.17;;
3189;SDS011;1606;51.946;10.558;2023-04-03T02:43:33;8.43;;;2.37;;
3189;SDS011;1606;51.946;10.558;2023-04-03T02:46:01;8.07;;;2.40;;
3189;SDS011;1606;51.946;10.558;2023-04-03T02:48:30;8.00;;;1.90;;
3189;SDS011;1606;51.946;10.558;2023-04-03T02:50:57;8.90;;;2.10;;
3189;SDS011;1606;51.946;10.558;2023-04-03T02:53:25;7.13;;;2.30;;
3189;SDS011;1606;51.946;10.558;2023-04-03T02:55:53;10.10;;;2.37;;
3189;SDS011;1606;51.946;10.558;2023-04-03T02:58:22;6.40;;;2.20;;
3189;SDS011;1606;51.946;10.558;2023-04-03T03:00:50;9.10;;;2.40;;
3189;SDS011;1606;51.946;10.558;2023-04-03T03:03:17;7.17;;;2.00;;
3189;SDS011;1606;51.946;10.558;2023-04-03T03:05:45;8.57;;;2.40;;
3189;SDS011;1606;51.946;10.558;2023-04-03T03:08:14;6.77;;;2.37;;
3189;SDS011;1606;51.946;10.558;2023-04-03T03:10:42;8.20;;;2.43;;
3189;SDS011;1606;51.946;10.558;2023-04-03T03:13:09;11.00;;;2.97;;
3189;SDS011;1606;51.946;10.558;2023-04-03T03:15:38;15.50;;;3.33;;
3189;SDS011;1606;51.946;10.558;2023-04-03T03:18:06;10.63;;;3.00;;
3189;SDS011;1606;51.946;10.558;2023-04-03T03:20:34;8.53;;;2.47;;
3189;SDS011;1606;51.946;10.558;2023-04-03T03:23:02;7.77;;;2.33;;
3189;SDS011;1606;51.946;10.558;2023-04-03T03:25:30;9.37;;;2.37;;
3189;SDS011;1606;51.946;10.558;2023-04-03T03:27:58;8.03;;;2.40;;
3189;SDS011;1606;51.946;10.558;2023-04-03T03:30:25;9.17;;;2.20;;
3189;SDS011;1606;51.946;10.558;2023-04-03T03:32:54;9.60;;;2.87;;
3189;SDS011;1606;51.946;10.558;2023-04-03T03:35:22;10.07;;;3.23;;
3189;SDS011;1606;51.946;10.558;2023-04-03T03:37:50;10.70;;;2.57;;
3189;SDS011;1606;51.946;10.558;2023-04-03T03:40:18;8.73;;;2.43;;
3189;SDS011;1606;51.946;10.558;2023-04-03T03:42:46;10.33;;;2.80;;
3189;SDS011;1606;51.946;10.558;2023-04-03T03:45:13;8.70;;;2.40;;
3189;SDS011;1606;51.946;10.558;2023-04-03T03:47:41;7.73;;;2.40;;
3189;SDS011;1606;51.946;10.558;2023-04-03T03:50:11;9.20;;;2.43;;
3189;SDS011;1606;51.946;10.558;2023-04-03T03:52:39;8.07;;;2.20;;
3189;SDS011;1606;51.946;10.558;2023-04-03T03:55:07;10.10;;;2.63;;
3189;SDS011;1606;51.946;10.558;2023-04-03T03:57:35;9.83;;;2.50;;
3189;SDS011;1606;51.946;10.558;2023-04-03T04:00:03;8.83;;;2.67;;
3189;SDS011;1606;51.946;10.558;2023-04-03T04:02:31;7.20;;;2.13;;
3189;SDS011;1606;51.946;10.558;2023-04-03T04:04:59;11.93;;;2.23;;
3189;SDS011;1606;51.946;10.558;2023-04-03T04:07:28;10.60;;;2.13;;
3189;SDS011;1606;51.946;10.558;2023-04-03T04:09:56;9.63;;;2.00;;
3189;SDS011;1606;51.946;10.558;2023-04-03T04:12:24;12.30;;;2.50;;
3189;SDS011;1606;51.946;10.558;2023-04-03T04:14:52;7.13;;;2.63;;
3189;SDS011;1606;51.946;10.558;2023-04-03T04:17:19;8.10;;;2.13;;
3189;SDS011;1606;51.946;10.558;2023-04-03T04:19:48;9.93;;;2.87;;
3189;SDS011;1606;51.946;10.558;2023-04-03T04:22:16;7.40;;;2.37;;
3189;SDS011;1606;51.946;10.558;2023-04-03T04:24:45;10.83;;;2.30;;
3189;SDS011;1606;51.946;10.558;2023-04-03T04:27:13;11.60;;;2.10;;
3189;SDS011;1606;51.946;10.558;2023-04-03T04:29:41;7.90;;;2.40;;
3189;SDS011;1606;51.946;10.558;2023-04-03T04:32:09;11.87;;;2.40;;
3189;SDS011;1606;51.946;10.558;2023-04-03T04:34:37;6.73;;;2.13;;
3189;SDS011;1606;51.946;10.558;2023-04-03T04:37:05;8.47;;;2.00;;
3189;SDS011;1606;51.946;10.558;2023-04-03T04:39:33;8.03;;;2.70;;
3189;SDS011;1606;51.946;10.558;2023-04-03T04:42:02;7.60;;;2.50;;
3189;SDS011;1606;51.946;10.558;2023-04-03T04:44:29;9.30;;;2.37;;
3189;SDS011;1606;51.946;10.558;2023-04-03T04:46:57;7.23;;;2.70;;
3189;SDS011;1606;51.946;10.558;2023-04-03T04:49:25;8.97;;;2.30;;
3189;SDS011;1606;51.946;10.558;2023-04-03T04:51:53;9.33;;;2.27;;
3189;SDS011;1606;51.946;10.558;2023-04-03T04:54:21;8.07;;;2.50;;
3189;SDS011;1606;51.946;10.558;2023-04-03T04:56:48;14.80;;;2.87;;
3189;SDS011;1606;51.946;10.558;2023-04-03T04:59:17;10.00;;;2.50;;
3189;SDS011;1606;51.946;10.558;2023-04-03T05:01:47;10.73;;;3.03;;
3189;SDS011;1606;51.946;10.558;2023-04-03T05:04:15;8.53;;;2.37;;
3189;SDS011;1606;51.946;10.558;2023-04-03T05:06:43;9.13;;;3.60;;
3189;SDS011;1606;51.946;10.558;2023-04-03T05:09:11;11.40;;;2.43;;
3189;SDS011;1606;51.946;10.558;2023-04-03T05:11:39;6.70;;;2.17;;
3189;SDS011;1606;51.946;10.558;2023-04-03T05:14:07;9.20;;;2.40;;
3189;SDS011;1606;51.946;10.558;2023-04-03T05:16:36;6.73;;;1.97;;
3189;SDS011;1606;51.946;10.558;2023-04-03T05:19:04;13.50;;;2.37;;
3189;SDS011;1606;51.946;10.558;2023-04-03T05:21:31;8.97;;;2.57;;
3189;SDS011;1606;51.946;10.558;2023-04-03T05:23:59;7.73;;;2.47;;
3189;SDS011;1606;51.946;10.558;2023-04-03T05:26:29;10.17;;;2.73;;
3189;SDS011;1606;51.946;10.558;2023-04-03T05:28:57;9.50;;;2.40;;
3189;SDS011;1606;51.946;10.558;2023-04-03T05:31:25;8.73;;;2.90;;
3189;SDS011;1606;51.946;10.558;2023-04-03T05:33:57;7.63;;;2.97;;
3189;SDS011;1606;51.946;10.558;2023-04-03T05:36:25;8.83;;;3.67;;
3189;SDS011;1606;51.946;10.558;2023-04-03T05:38:53;9.20;;;5.00;;
3189;SDS011;1606;51.946;10.558;2023-04-03T05:41:22;11.03;;;3.63;;
3189;SDS011;1606;51.946;10.558;2023-04-03T05:43:50;9.93;;;3.57;;
3189;SDS011;1606;51.946;10.558;2023-04-03T05:46:18;9.27;;;3.90;;
3189;SDS011;1606;51.946;10.558;2023-04-03T05:48:48;15.03;;;4.13;;
3189;SDS011;1606;51.946;10.558;2023-04-03T05:51:18;8.80;;;3.97;;
3189;SDS011;1606;51.946;10.558;2023-04-03T05:53:48;9.93;;;3.20;;
3189;SDS011;1606;51.946;10.558;2023-04-03T05:56:22;10.50;;;3.07;;
3189;SDS011;1606;51.946;10.558;2023-04-03T05:58:49;10.32;;;2.95;;
3189;SDS011;1606;51.946;10.558;2023-04-03T06:01:17;10.57;;;3.53;;
3189;SDS011;1606;51.946;10.558;2023-04-03T06:03:45;8.40;;;3.50;;
3189;SDS011;1606;51.946;10.558;2023-04-03T06:06:13;9.20;;;2.60;;
3189;SDS011;1606;51.946;10.558;2023-04-03T06:08:42;8.87;;;2.80;;
3189;SDS011;1606;51.946;10.558;2023-04-03T06:11:10;8.13;;;2.20;;
3189;SDS011;1606;51.946;10.558;2023-04-03T06:13:38;12.60;;;3.80;;
3189;SDS011;1606;51.946;10.558;2023-04-03T06:16:06;9.70;;;3.43;;
3189;SDS011;1606;51.946;10.558;2023-04-03T06:18:35;14.90;;;2.80;;
3189;SDS011;1606;51.946;10.558;2023-04-03T06:21:03;8.37;;;2.47;;
3189;SDS011;1606;51.946;10.558;2023-04-03T06:23:33;11.33;;;2.70;;
3189;SDS011;1606;51.946;10.558;2023-04-03T06:26:03;9.20;;;2.83;;
3189;SDS011;1606;51.946;10.558;2023-04-03T06:28:31;7.77;;;2.43;;
3189;SDS011;1606;51.946;10.558;2023-04-03T06:30:59;11.90;;;2.67;;
3189;SDS011;1606;51.946;10.558;2023-04-03T06:33:27;6.93;;;2.37;;
3189;SDS011;1606;51.946;10.558;2023-04-03T06:35:55;8.23;;;2.30;;
3189;SDS011;1606;51.946;10.558;2023-04-03T06:38:24;8.10;;;2.00;;
3189;SDS011;1606;51.946;10.558;2023-04-03T06:40:52;10.37;;;2.63;;
3189;SDS011;1606;51.946;10.558;2023-04-03T06:43:21;8.80;;;2.50;;
3189;SDS011;1606;51.946;10.558;2023-04-03T06:45:50;9.53;;;2.27;;
3189;SDS011;1606;51.946;10.558;2023-04-03T06:48:18;9.87;;;2.37;;
3189;SDS011;1606;51.946;10.558;2023-04-03T06:50:46;7.37;;;2.37;;
3189;SDS011;1606;51.946;10.558;2023-04-03T06:53:13;12.37;;;2.47;;
3189;SDS011;1606;51.946;10.558;2023-04-03T06:55:41;9.50;;;2.10;;
3189;SDS011;1606;51.946;10.558;2023-04-03T06:58:10;8.80;;;2.40;;
3189;SDS011;1606;51.946;10.558;2023-04-03T07:00:39;10.27;;;2.10;;
3189;SDS011;1606;51.946;10.558;2023-04-03T07:03:07;9.77;;;2.70;;
3189;SDS011;1606;51.946;10.558;2023-04-03T07:05:34;6.90;;;2.40;;
3189;SDS011;1606;51.946;10.558;2023-04-03T07:08:03;10.13;;;2.20;;
3189;SDS011;1606;51.946;10.558;2023-04-03T07:10:30;14.50;;;3.30;;
3189;SDS011;1606;51.946;10.558;2023-04-03T07:12:58;8.33;;;2.10;;
3189;SDS011;1606;51.946;10.558;2023-04-03T07:15:27;10.93;;;2.30;;
3189;SDS011;1606;51.946;10.558;2023-04-03T07:17:57;13.30;;;2.30;;
3189;SDS011;1606;51.946;10.558;2023-04-03T07:20:25;8.57;;;2.70;;
3189;SDS011;1606;51.946;10.558;2023-04-03T07:22:52;10.80;;;2.30;;
3189;SDS011;1606;51.946;10.558;2023-04-03T07:25:20;9.60;;;2.67;;
3189;SDS011;1606;51.946;10.558;2023-04-03T07:27:48;27.43;;;2.70;;
3189;SDS011;1606;51.946;10.558;2023-04-03T07:30:16;7.13;;;2.50;;
3189;SDS011;1606;51.946;10.558;2023-04-03T07:32:44;10.67;;;2.10;;
3189;SDS011;1606;51.946;10.558;2023-04-03T07:35:13;8.80;;;3.20;;
3189;SDS011;1606;51.946;10.558;2023-04-03T07:37:42;9.97;;;2.47;;
3189;SDS011;1606;51.946;10.558;2023-04-03T07:40:10;9.00;;;2.20;;
3189;SDS011;1606;51.946;10.558;2023-04-03T07:42:38;7.87;;;1.83;;
3189;SDS011;1606;51.946;10.558;2023-04-03T07:45:06;8.27;;;2.07;;
3189;SDS011;1606;51.946;10.558;2023-04-03T07:47:35;8.23;;;2.63;;
3189;SDS011;1606;51.946;10.558;2023-04-03T07:50:03;7.17;;;2.77;;
3189;SDS011;1606;51.946;10.558;2023-04-03T07:52:32;8.40;;;1.87;;
3189;SDS011;1606;51.946;10.558;2023-04-03T07:55:00;13.40;;;2.47;;
3189;SDS011;1606;51.946;10.558;2023-04-03T07:57:28;12.23;;;2.10;;
3189;SDS011;1606;51.946;10.558;2023-04-03T07:59:56;8.77;;;2.37;;
3189;SDS011;1606;51.946;10.558;2023-04-03T08:02:23;11.50;;;2.53;;
3189;SDS011;1606;51.946;10.558;2023-04-03T08:04:51;8.20;;;2.30;;
3189;SDS011;1606;51.946;10.558;2023-04-03T08:07:19;6.80;;;2.00;;
3189;SDS011;1606;51.946;10.558;2023-04-03T08:09:49;8.37;;;2.47;;
3189;SDS011;1606;51.946;10.558;2023-04-03T08:12:17;9.50;;;2.77;;
3189;SDS011;1606;51.946;10.558;2023-04-03T08:14:45;7.30;;;2.43;;
3189;SDS011;1606;51.946;10.558;2023-04-03T08:17:12;8.83;;;2.20;;
3189;SDS011;1606;51.946;10.558;2023-04-03T08:19:41;11.10;;;2.40;;
3189;SDS011;1606;51.946;10.558;2023-04-03T08:22:08;9.63;;;2.10;;
3189;SDS011;1606;51.946;10.558;2023-04-03T08:24:36;9.47;;;1.83;;
3189;SDS011;1606;51.946;10.558;2023-04-03T08:27:15;7.73;;;1.77;;
3189;SDS011;1606;51.946;10.558;2023-04-03T08:29:43;8.13;;;2.03;;
3189;SDS011;1606;51.946;10.558;2023-04-03T08:32:11;11.90;;;2.70;;
3189;SDS011;1606;51.946;10.558;2023-04-03T08:34:39;5.40;;;1.70;;
3189;SDS011;1606;51.946;10.558;2023-04-03T08:37:07;8.50;;;1.97;;
3189;SDS011;1606;51.946;10.558;2023-04-03T08:39:35;6.33;;;1.80;;
3189;SDS011;1606;51.946;10.558;2023-04-03T08:42:05;5.73;;;1.77;;
3189;SDS011;1606;51.946;10.558;2023-04-03T08:44:45;7.43;;;1.90;;
3189;SDS011;1606;51.946;10.558;2023-04-03T08:47:18;5.87;;;1.87;;
3189;SDS011;1606;51.946;10.558;2023-04-03T08:49:51;6.90;;;1.87;;
3189;SDS011;1606;51.946;10.558;2023-04-03T08:52:24;5.93;;;1.67;;
3189;SDS011;1606;51.946;10.558;2023-04-03T08:54:57;7.00;;;1.70;;
3189;SDS011;1606;51.946;10.558;2023-04-03T08:57:28;8.80;;;1.90;;
3189;SDS011;1606;51.946;10.558;2023-04-03T09:00:01;11.20;;;2.00;;
3189;SDS011;1606;51.946;10.558;2023-04-03T09:02:33;8.70;;;2.20;;
3189;SDS011;1606;51.946;10.558;2023-04-03T09:05:09;6.27;;;1.87;;
3189;SDS011;1606;51.946;10.558;2023-04-03T09:07:42;7.80;;;2.30;;
3189;SDS011;1606;51.946;10.558;2023-04-03T09:10:15;7.20;;;1.53;;
3189;SDS011;1606;51.946;10.558;2023-04-03T09:12:48;10.70;;;2.40;;
3189;SDS011;1606;51.946;10.558;2023-04-03T09:15:22;8.47;;;2.53;;
3189;SDS011;1606;51.946;10.558;2023-04-03T09:18:05;6.40;;;1.60;;
3189;SDS011;1606;51.946;10.558;2023-04-03T09:20:42;5.93;;;1.50;;
3189;SDS011;1606;51.946;10.558;2023-04-03T09:23:15;12.53;;;1.60;;
3189;SDS011;1606;51.946;10.558;2023-04-03T09:25:47;6.40;;;1.77;;
3189;SDS011;1606;51.946;10.558;2023-04-03T09:28:17;10.00;;;2.20;;
3189;SDS011;1606;51.946;10.558;2023-04-03T09:30:46;7.83;;;2.27;;
3189;SDS011;1606;51.946;10.558;2023-04-03T09:33:13;9.90;;;2.13;;
3189;SDS011;1606;51.946;10.558;2023-04-03T09:35:42;8.37;;;2.40;;
3189;SDS011;1606;51.946;10.558;2023-04-03T09:38:15;9.63;;;1.90;;
3189;SDS011;1606;51.946;10.558;2023-04-03T09:40:45;9.20;;;2.53;;
3189;SDS011;1606;51.946;10.558;2023-04-03T09:43:19;9.67;;;1.43;;
3189;SDS011;1606;51.946;10.558;2023-04-03T09:45:53;5.10;;;1.30;;
3189;SDS011;1606;51.946;10.558;2023-04-03T09:48:23;6.70;;;1.90;;
3189;SDS011;1606;51.946;10.558;2023-04-03T09:50:53;6.27;;;1.60;;
3189;SDS011;1606;51.946;10.558;2023-04-03T09:53:27;8.90;;;1.63;;
3189;SDS011;1606;51.946;10.558;2023-04-03T09:55:57;9.60;;;1.53;;
3189;SDS011;1606;51.946;10.558;2023-04-03T09:58:27;9.77;;;1.67;;
3189;SDS011;1606;51.946;10.558;2023-04-03T10:01:22;8.43;;;1.53;;
3189;SDS011;1606;51.946;10.558;2023-04-03T10:04:07;6.93;;;1.70;;
3189;SDS011;1606;51.946;10.558;2023-04-03T10:06:37;5.80;;;1.30;;
3189;SDS011;1606;51.946;10.558;2023-04-03T10:09:17;5.17;;;1.47;;
3189;SDS011;1606;51.946;10.558;2023-04-03T10:11:57;10.67;;;2.47;;
3189;SDS011;1606;51.946;10.558;2023-04-03T10:14:27;6.77;;;1.87;;
3189;SDS011;1606;51.946;10.558;2023-04-03T10:16:59;6.80;;;1.67;;
3189;SDS011;1606;51.946;10.558;2023-04-03T10:19:34;5.60;;;1.20;;
3189;SDS011;1606;51.946;10.558;2023-04-03T10:22:09;5.60;;;2.03;;
3189;SDS011;1606;51.946;10.558;2023-04-03T10:24:52;5.40;;;1.43;;
3189;SDS011;1606;51.946;10.558;2023-04-03T10:27:31;6.70;;;1.87;;
3189;SDS011;1606;51.946;10.558;2023-04-03T10:30:09;10.23;;;2.10;;
3189;SDS011;1606;51.946;10.558;2023-04-03T10:32:52;7.27;;;1.33;;
3189;SDS011;1606;51.946;10.558;2023-04-03T10:35:30;8.55;;;1.65;;
3189;SDS011;1606;51.946;10.558;2023-04-03T10:38:08;6.90;;;1.70;;
3189;SDS011;1606;51.946;10.558;2023-04-03T10:40:45;8.40;;;2.00;;
3189;SDS011;1606;51.946;10.558;2023-04-03T10:43:21;6.77;;;1.63;;
3189;SDS011;1606;51.946;10.558;2023-04-03T10:45:57;7.27;;;1.40;;
3189;SDS011;1606;51.946;10.558;2023-04-03T10:48:35;5.53;;;1.50;;
3189;SDS011;1606;51.946;10.558;2023-04-03T10:51:14;5.93;;;1.93;;
3189;SDS011;1606;51.946;10.558;2023-04-03T10:53:52;9.60;;;1.90;;
3189;SDS011;1606;51.946;10.558;2023-04-03T10:56:27;5.20;;;1.53;;
3189;SDS011;1606;51.946;10.558;2023-04-03T10:59:01;5.77;;;1.27;;
3189;SDS011;1606;51.946;10.558;2023-04-03T11:01:39;8.27;;;1.57;;
3189;SDS011;1606;51.946;10.558;2023-04-03T11:04:12;7.60;;;1.57;;
3189;SDS011;1606;51.946;10.558;2023-04-03T11:06:44;5.17;;;1.20;;
3189;SDS011;1606;51.946;10.558;2023-04-03T11:09:19;6.70;;;1.70;;
3189;SDS011;1606;51.946;10.558;2023-04-03T11:11:51;6.63;;;2.10;;
3189;SDS011;1606;51.946;10.558;2023-04-03T11:14:24;7.90;;;1.90;;
3189;SDS011;1606;51.946;10.558;2023-04-03T11:17:11;5.93;;;1.80;;
3189;SDS011;1606;51.946;10.558;2023-04-03T11:19:49;6.90;;;2.13;;
3189;SDS011;1606;51.946;10.558;2023-04-03T11:22:25;7.00;;;1.70;;
3189;SDS011;1606;51.946;10.558;2023-04-03T11:25:02;6.57;;;1.57;;
3189;SDS011;1606;51.946;10.558;2023-04-03T11:27:36;5.20;;;1.30;;
3189;SDS011;1606;51.946;10.558;2023-04-03T11:30:07;5.67;;;1.67;;
3189;SDS011;1606;51.946;10.558;2023-04-03T11:35:49;11.17;;;1.97;;
3189;SDS011;1606;51.946;10.558;2023-04-03T11:38:22;5.72;;;1.48;;
3189;SDS011;1606;51.946;10.558;2023-04-03T11:40:55;6.70;;;1.50;;
3189;SDS011;1606;51.946;10.558;2023-04-03T11:43:25;5.80;;;1.60;;
3189;SDS011;1606;51.946;10.558;2023-04-03T11:45:56;5.70;;;1.60;;
3189;SDS011;1606;51.946;10.558;2023-04-03T11:48:43;4.90;;;1.33;;
3189;SDS011;1606;51.946;10.558;2023-04-03T11:57:22;6.30;;;1.53;;
3189;SDS011;1606;51.946;10.558;2023-04-03T12:03:32;5.70;;;1.73;;
3189;SDS011;1606;51.946;10.558;2023-04-03T12:09:31;6.43;;;1.90;;
3189;SDS011;1606;51.946;10.558;2023-04-03T12:14:54;7.47;;;1.80;;
3189;SDS011;1606;51.946;10.558;2023-04-03T12:17:25;4.90;;;1.33;;
3189;SDS011;1606;51.946;10.558;2023-04-03T12:19:55;6.37;;;1.60;;
3189;SDS011;1606;51.946;10.558;2023-04-03T12:22:23;6.07;;;1.60;;
3189;SDS011;1606;51.946;10.558;2023-04-03T12:24:52;5.13;;;1.53;;
3189;SDS011;1606;51.946;10.558;2023-04-03T12:27:25;6.97;;;1.40;;
3189;SDS011;1606;51.946;10.558;2023-04-03T12:29:56;7.40;;;1.87;;
3189;SDS011;1606;51.946;10.558;2023-04-03T12:32:35;6.10;;;1.63;;
3189;SDS011;1606;51.946;10.558;2023-04-03T12:35:20;6.77;;;1.80;;
3189;SDS011;1606;51.946;10.558;2023-04-03T12:41:03;6.30;;;1.93;;
3189;SDS011;1606;51.946;10.558;2023-04-03T12:43:48;5.73;;;1.80;;
3189;SDS011;1606;51.946;10.558;2023-04-03T12:46:26;6.53;;;1.57;;
3189;SDS011;1606;51.946;10.558;2023-04-03T12:49:01;7.13;;;2.03;;
3189;SDS011;1606;51.946;10.558;2023-04-03T12:51:40;5.83;;;1.73;;
3189;SDS011;1606;51.946;10.558;2023-04-03T12:54:12;6.43;;;1.80;;
3189;SDS011;1606;51.946;10.558;2023-04-03T12:56:43;7.33;;;2.20;;
3189;SDS011;1606;51.946;10.558;2023-04-03T12:59:15;5.90;;;1.53;;
3189;SDS011;1606;51.946;10.558;2023-04-03T13:01:44;6.90;;;2.10;;
3189;SDS011;1606;51.946;10.558;2023-04-03T13:04:21;5.90;;;1.50;;
3189;SDS011;1606;51.946;10.558;2023-04-03T13:06:49;8.37;;;1.90;;
3189;SDS011;1606;51.946;10.558;2023-04-03T13:09:18;6.33;;;1.70;;
3189;SDS011;1606;51.946;10.558;2023-04-03T13:11:50;6.20;;;1.70;;
3189;SDS011;1606;51.946;10.558;2023-04-03T13:14:24;10.17;;;1.70;;
3189;SDS011;1606;51.946;10.558;2023-04-03T13:16:54;12.17;;;3.20;;
3189;SDS011;1606;51.946;10.558;2023-04-03T13:19:23;5.87;;;1.70;;
3189;SDS011;1606;51.946;10.558;2023-04-03T13:21:56;7.00;;;2.10;;
3189;SDS011;1606;51.946;10.558;2023-04-03T13:24:27;6.10;;;1.80;;
3189;SDS011;1606;51.946;10.558;2023-04-03T13:26:57;10.40;;;1.50;;
3189;SDS011;1606;51.946;10.558;2023-04-03T13:29:26;5.20;;;2.07;;
3189;SDS011;1606;51.946;10.558;2023-04-03T13:31:57;8.27;;;1.73;;
3189;SDS011;1606;51.946;10.558;2023-04-03T13:34:27;7.53;;;1.57;;
3189;SDS011;1606;51.946;10.558;2023-04-03T13:36:58;6.03;;;1.60;;
3189;SDS011;1606;51.946;10.558;2023-04-03T13:39:30;5.70;;;1.67;;
3189;SDS011;1606;51.946;10.558;2023-04-03T13:42:03;6.30;;;1.40;;
3189;SDS011;1606;51.946;10.558;2023-04-03T13:44:43;5.43;;;1.70;;
3189;SDS011;1606;51.946;10.558;2023-04-03T13:47:15;5.50;;;1.63;;
3189;SDS011;1606;51.946;10.558;2023-04-03T13:49:46;5.53;;;1.60;;
3189;SDS011;1606;51.946;10.558;2023-04-03T13:52:27;5.30;;;1.80;;
3189;SDS011;1606;51.946;10.558;2023-04-03T13:54:59;5.30;;;1.43;;
3189;SDS011;1606;51.946;10.558;2023-04-03T13:57:34;6.03;;;1.60;;
3189;SDS011;1606;51.946;10.558;2023-04-03T14:02:55;6.87;;;1.90;;
3189;SDS011;1606;51.946;10.558;2023-04-03T14:05:24;5.60;;;1.70;;
3189;SDS011;1606;51.946;10.558;2023-04-03T14:07:52;5.27;;;1.40;;
3189;SDS011;1606;51.946;10.558;2023-04-03T14:10:21;5.93;;;2.20;;
3189;SDS011;1606;51.946;10.558;2023-04-03T14:12:50;5.60;;;1.40;;
3189;SDS011;1606;51.946;10.558;2023-04-03T14:15:19;7.40;;;1.73;;
3189;SDS011;1606;51.946;10.558;2023-04-03T14:17:50;6.00;;;1.60;;
3189;SDS011;1606;51.946;10.558;2023-04-03T14:20:20;7.40;;;2.40;;
3189;SDS011;1606;51.946;10.558;2023-04-03T14:22:49;7.20;;;2.20;;
3189;SDS011;1606;51.946;10.558;2023-04-03T14:25:17;9.03;;;2.20;;
3189;SDS011;1606;51.946;10.558;2023-04-03T14:27:47;9.20;;;2.23;;
3189;SDS011;1606;51.946;10.558;2023-04-03T14:30:19;6.37;;;1.50;;
3189;SDS011;1606;51.946;10.558;2023-04-03T14:32:49;5.10;;;1.60;;
3189;SDS011;1606;51.946;10.558;2023-04-03T14:35:17;5.03;;;1.40;;
3189;SDS011;1606;51.946;10.558;2023-04-03T14:37:46;4.40;;;1.40;;
3189;SDS011;1606;51.946;10.558;2023-04-03T14:40:19;7.17;;;1.70;;
3189;SDS011;1606;51.946;10.558;2023-04-03T14:42:49;5.03;;;1.47;;
3189;SDS011;1606;51.946;10.558;2023-04-03T14:45:18;7.00;;;1.50;;
3189;SDS011;1606;51.946;10.558;2023-04-03T14:47:47;6.57;;;1.90;;
3189;SDS011;1606;51.946;10.558;2023-04-03T14:50:18;5.77;;;1.60;;
3189;SDS011;1606;51.946;10.558;2023-04-03T14:52:49;5.40;;;1.27;;
3189;SDS011;1606;51.946;10.558;2023-04-03T14:55:20;7.30;;;2.30;;
3189;SDS011;1606;51.946;10.558;2023-04-03T14:57:49;6.93;;;1.80;;
3189;SDS011;1606;51.946;10.558;2023-04-03T15:00:20;7.13;;;1.90;;
3189;SDS011;1606;51.946;10.558;2023-04-03T15:02:49;10.30;;;2.00;;
3189;SDS011;1606;51.946;10.558;2023-04-03T15:05:17;6.07;;;1.90;;
3189;SDS011;1606;51.946;10.558;2023-04-03T15:07:47;6.07;;;1.50;;
3189;SDS011;1606;51.946;10.558;2023-04-03T15:10:17;5.87;;;1.60;;
3189;SDS011;1606;51.946;10.558;2023-04-03T15:12:47;5.30;;;1.60;;
3189;SDS011;1606;51.946;10.558;2023-04-03T15:15:16;5.57;;;1.43;;
3189;SDS011;1606;51.946;10.558;2023-04-03T15:17:47;5.20;;;1.33;;
3189;SDS011;1606;51.946;10.558;2023-04-03T15:20:21;6.57;;;1.97;;
3189;SDS011;1606;51.946;10.558;2023-04-03T15:22:50;5.90;;;1.97;;
3189;SDS011;1606;51.946;10.558;2023-04-03T15:25:18;5.63;;;1.53;;
3189;SDS011;1606;51.946;10.558;2023-04-03T15:27:45;8.57;;;2.03;;
3189;SDS011;1606;51.946;10.558;2023-04-03T15:30:15;10.00;;;1.97;;
3189;SDS011;1606;51.946;10.558;2023-04-03T15:32:46;6.03;;;1.77;;
3189;SDS011;1606;51.946;10.558;2023-04-03T15:35:14;10.60;;;2.20;;
3189;SDS011;1606;51.946;10.558;2023-04-03T15:37:42;5.77;;;2.00;;
3189;SDS011;1606;51.946;10.558;2023-04-03T15:40:10;8.00;;;2.30;;
3189;SDS011;1606;51.946;10.558;2023-04-03T15:42:38;6.23;;;1.63;;
3189;SDS011;1606;51.946;10.558;2023-04-03T15:45:07;7.60;;;1.90;;